createdAt,value
2022-07-25T00:01:05.064Z,20.20
2022-07-25T00:03:35.937Z,19.17
2022-07-25T00:06:07.324Z,20.27
2022-07-25T00:08:41.195Z,19.35
2022-07-25T00:11:09.054Z,20.02
2022-07-25T00:13:36.635Z,19.52
2022-07-25T00:16:04.372Z,19.45
2022-07-25T00:18:31.992Z,19.65
2022-07-25T00:21:00.968Z,20.10
2022-07-25T00:23:28.593Z,20.95
2022-07-25T00:25:56.176Z,19.42
2022-07-25T00:28:23.760Z,20.58
2022-07-25T00:30:51.381Z,20.55
2022-07-25T00:33:19.011Z,20.38
2022-07-25T00:35:46.611Z,20.30
2022-07-25T00:38:15.560Z,20.73
2022-07-25T00:40:43.169Z,20.30
2022-07-25T00:43:10.771Z,19.88
2022-07-25T00:45:38.447Z,20.00
2022-07-25T00:48:07.404Z,20.08
2022-07-25T00:50:35.042Z,21.40
2022-07-25T00:53:02.689Z,19.63
2022-07-25T00:55:33.688Z,20.08
2022-07-25T00:58:01.555Z,21.08
2022-07-25T01:00:29.291Z,21.42
2022-07-25T01:02:58.372Z,20.33
2022-07-25T01:05:26.116Z,21.10
2022-07-25T01:07:54.163Z,20.45
2022-07-25T01:10:21.782Z,20.58
2022-07-25T01:12:52.702Z,20.98
2022-07-25T01:15:20.741Z,21.30
2022-07-25T01:17:49.110Z,20.95
2022-07-25T01:20:18.887Z,19.95
2022-07-25T01:22:47.072Z,20.73
2022-07-25T01:25:15.882Z,21.73
2022-07-25T01:27:44.152Z,21.45
2022-07-25T01:30:14.421Z,20.95
2022-07-25T01:32:42.889Z,19.95
2022-07-25T01:35:12.056Z,21.65
2022-07-25T01:37:41.245Z,20.40
2022-07-25T01:40:14.581Z,20.10
2022-07-25T01:42:42.683Z,20.35
2022-07-25T01:45:11.610Z,21.63
2022-07-25T01:47:39.535Z,21.08
2022-07-25T01:50:08.392Z,21.35
2022-07-25T01:52:37.036Z,21.55
2022-07-25T01:55:07.026Z,22.42
2022-07-25T01:57:36.119Z,22.60
2022-07-25T02:00:05.358Z,22.25
2022-07-25T02:02:33.037Z,21.98
2022-07-25T02:05:00.710Z,22.10
2022-07-25T02:07:28.373Z,21.40
2022-07-25T02:09:56.984Z,21.83
2022-07-25T02:12:26.229Z,22.08
2022-07-25T02:14:53.847Z,20.27
2022-07-25T02:17:21.548Z,21.77
2022-07-25T02:19:49.208Z,22.23
2022-07-25T02:22:16.844Z,20.80
2022-07-25T02:24:44.517Z,21.88
2022-07-25T02:27:12.124Z,20.08
2022-07-25T02:29:41.133Z,21.45
2022-07-25T02:32:09.218Z,21.50
2022-07-25T02:34:36.846Z,22.08
2022-07-25T02:37:04.459Z,22.23
2022-07-25T02:39:32.094Z,21.92
2022-07-25T02:41:59.684Z,21.35
2022-07-25T02:44:27.278Z,21.60
2022-07-25T02:46:56.231Z,22.20
2022-07-25T02:49:23.804Z,22.40
2022-07-25T02:51:51.370Z,22.63
2022-07-25T02:54:20.076Z,22.45
2022-07-25T02:56:47.690Z,22.55
2022-07-25T02:59:15.272Z,22.27
2022-07-25T03:01:43.006Z,23.27
2022-07-25T03:04:12.106Z,24.33
2022-07-25T03:09:10.316Z,23.35
2022-07-25T03:11:37.927Z,23.45
2022-07-25T03:14:05.817Z,24.05
2022-07-25T03:16:33.663Z,23.95
2022-07-25T03:19:01.329Z,23.67
2022-07-25T03:21:30.281Z,23.77
2022-07-25T03:23:57.857Z,24.98
2022-07-25T03:26:25.686Z,25.30
2022-07-25T03:28:53.278Z,24.70
2022-07-25T03:31:20.912Z,24.85
2022-07-25T03:33:48.494Z,23.83
2022-07-25T03:36:16.057Z,23.35
2022-07-25T03:38:45.021Z,22.95
2022-07-25T03:41:13.179Z,24.48
2022-07-25T03:43:40.830Z,24.65
2022-07-25T03:46:08.534Z,24.77
2022-07-25T03:48:36.311Z,23.58
2022-07-25T03:51:07.029Z,24.33
2022-07-25T03:53:54.952Z,24.48
2022-07-25T03:56:23.942Z,23.30
2022-07-25T03:58:51.554Z,24.15
2022-07-25T04:01:19.334Z,22.63
2022-07-25T04:03:47.437Z,22.98
2022-07-25T04:06:15.078Z,23.05
2022-07-25T04:08:42.740Z,23.85
2022-07-25T04:11:10.328Z,24.08
2022-07-25T04:13:39.283Z,22.83
2022-07-25T04:16:11.524Z,23.52
2022-07-25T04:18:42.161Z,24.90
2022-07-25T04:21:11.675Z,23.85
2022-07-25T04:23:39.326Z,22.83
2022-07-25T04:26:07.231Z,23.70
2022-07-25T04:28:35.391Z,24.33
2022-07-25T04:31:04.712Z,22.58
2022-07-25T04:33:32.336Z,23.08
2022-07-25T04:36:00.232Z,23.83
2022-07-25T04:38:27.856Z,24.00
2022-07-25T04:40:55.440Z,23.35
2022-07-25T04:43:23.337Z,22.73
2022-07-25T04:45:51.013Z,23.83
2022-07-25T04:48:19.998Z,22.45
2022-07-25T04:50:47.623Z,24.23
2022-07-25T04:53:15.216Z,24.45
2022-07-25T04:55:42.823Z,23.75
2022-07-25T04:58:10.416Z,24.23
2022-07-25T05:00:38.259Z,22.95
2022-07-25T05:03:05.954Z,22.77
2022-07-25T05:05:35.834Z,21.75
2022-07-25T05:08:03.831Z,21.80
2022-07-25T05:10:31.654Z,23.20
2022-07-25T05:12:59.225Z,23.30
2022-07-25T05:15:26.971Z,23.67
2022-07-25T05:17:54.542Z,22.55
2022-07-25T05:20:22.277Z,22.58
2022-07-25T05:22:51.812Z,23.45
2022-07-25T05:25:19.570Z,23.15
2022-07-25T05:27:47.538Z,22.67
2022-07-25T05:30:15.627Z,23.58
2022-07-25T05:32:43.367Z,23.05
2022-07-25T05:35:11.346Z,22.35
2022-07-25T05:37:39.217Z,22.15
2022-07-25T05:40:09.234Z,23.55
2022-07-25T05:42:36.957Z,25.52
2022-07-25T05:45:05.207Z,22.55
2022-07-25T05:47:32.871Z,24.00
2022-07-25T05:50:00.452Z,23.10
2022-07-25T05:52:28.095Z,23.83
2022-07-25T05:54:55.755Z,24.80
2022-07-25T05:57:24.811Z,23.90
2022-07-25T05:59:52.557Z,23.60
2022-07-25T06:02:20.359Z,23.75
2022-07-25T06:04:48.016Z,23.83
2022-07-25T06:07:16.801Z,23.25
2022-07-25T06:09:44.933Z,25.30
2022-07-25T06:12:14.028Z,23.27
2022-07-25T06:14:43.049Z,23.60
2022-07-25T06:17:10.677Z,23.88
2022-07-25T06:19:38.330Z,23.45
2022-07-25T06:22:05.989Z,22.58
2022-07-25T06:24:33.580Z,24.15
2022-07-25T06:27:01.871Z,23.95
2022-07-25T06:29:29.480Z,23.42
2022-07-25T06:31:58.535Z,23.40
2022-07-25T06:34:28.780Z,23.83
2022-07-25T06:36:57.491Z,23.85
2022-07-25T06:39:25.366Z,23.13
2022-07-25T06:41:53.009Z,21.88
2022-07-25T06:44:20.682Z,23.02
2022-07-25T06:46:48.376Z,22.95
2022-07-25T06:49:19.226Z,22.55
2022-07-25T06:51:46.893Z,22.92
2022-07-25T06:54:15.616Z,24.02
2022-07-25T06:56:43.265Z,21.73
2022-07-25T06:59:10.884Z,23.08
2022-07-25T07:01:38.897Z,23.40
2022-07-25T07:04:07.058Z,22.38
2022-07-25T07:06:36.615Z,23.48
2022-07-25T07:09:04.479Z,23.33
2022-07-25T07:11:32.145Z,23.23
2022-07-25T07:14:00.022Z,22.80
2022-07-25T07:16:27.952Z,22.50
2022-07-25T07:18:55.678Z,22.52
2022-07-25T07:21:23.413Z,23.25
2022-07-25T07:23:53.747Z,22.20
2022-07-25T07:26:21.732Z,22.17
2022-07-25T07:28:49.369Z,23.60
2022-07-25T07:31:17.998Z,24.05
2022-07-25T07:33:45.978Z,23.10
2022-07-25T07:36:13.690Z,24.15
2022-07-25T07:38:41.595Z,23.02
2022-07-25T07:41:10.518Z,22.98
2022-07-25T07:43:38.169Z,23.48
2022-07-25T07:46:06.277Z,23.13
2022-07-25T07:48:34.503Z,23.60
2022-07-25T07:51:02.878Z,23.20
2022-07-25T07:53:45.172Z,23.40
2022-07-25T07:56:14.260Z,23.02
2022-07-25T07:58:41.846Z,22.20
2022-07-25T08:01:09.487Z,21.15
2022-07-25T08:03:37.362Z,23.35
2022-07-25T08:06:05.391Z,23.45
2022-07-25T08:08:32.998Z,23.98
2022-07-25T08:11:00.716Z,23.08
2022-07-25T08:13:31.682Z,22.98
2022-07-25T08:16:03.358Z,21.60
2022-07-25T08:18:32.704Z,22.73
2022-07-25T08:21:02.907Z,22.73
2022-07-25T08:23:31.837Z,22.13
2022-07-25T08:25:59.490Z,22.40
2022-07-25T08:28:27.200Z,22.92
2022-07-25T08:30:56.369Z,22.02
2022-07-25T08:33:24.106Z,22.20
2022-07-25T08:35:54.501Z,22.13
2022-07-25T08:38:22.764Z,21.83
2022-07-25T08:40:50.804Z,22.90
2022-07-25T08:43:19.065Z,22.30
2022-07-25T08:45:47.912Z,21.58
2022-07-25T08:48:18.753Z,22.35
2022-07-25T08:50:47.643Z,23.10
2022-07-25T08:53:32.666Z,22.60
2022-07-25T08:56:05.363Z,21.85
2022-07-25T08:58:37.967Z,23.08
2022-07-25T09:01:05.747Z,23.73
2022-07-25T09:03:36.161Z,22.90
2022-07-25T09:06:14.875Z,22.20
2022-07-25T09:08:52.288Z,22.67
2022-07-25T09:11:30.665Z,22.30
2022-07-25T09:14:03.075Z,23.17
2022-07-25T09:16:35.269Z,22.48
2022-07-25T09:19:15.090Z,23.25
2022-07-25T09:21:44.761Z,21.63
2022-07-25T09:24:15.996Z,23.73
2022-07-25T09:26:45.422Z,23.65
2022-07-25T09:29:18.209Z,22.85
2022-07-25T09:31:46.060Z,22.17
2022-07-25T09:34:25.528Z,22.05
2022-07-25T09:36:54.633Z,22.45
2022-07-25T09:39:23.539Z,21.10
2022-07-25T09:41:51.139Z,21.30
2022-07-25T09:44:19.125Z,20.05
2022-07-25T09:46:47.498Z,19.33
2022-07-25T09:49:16.592Z,20.65
2022-07-25T09:51:44.404Z,21.48
2022-07-25T09:54:12.092Z,20.95
2022-07-25T09:56:39.698Z,19.55
2022-07-25T09:59:07.535Z,20.10
2022-07-25T10:01:37.305Z,18.73
2022-07-25T10:04:13.297Z,19.35
2022-07-25T10:06:49.800Z,19.65
2022-07-25T10:09:17.982Z,19.30
2022-07-25T10:12:06.927Z,19.48
2022-07-25T10:14:34.710Z,18.15
2022-07-25T10:17:02.569Z,19.60
2022-07-25T10:19:45.883Z,18.30
2022-07-25T10:22:29.442Z,17.33
2022-07-25T10:25:13.262Z,17.17
2022-07-25T10:27:48.550Z,17.58
2022-07-25T10:30:21.329Z,17.25
2022-07-25T10:32:52.651Z,17.67
2022-07-25T10:35:20.391Z,17.73
2022-07-25T10:37:51.930Z,17.85
2022-07-25T10:42:58.407Z,17.95
2022-07-25T10:45:27.875Z,17.95
2022-07-25T10:47:56.059Z,17.40
2022-07-25T10:50:46.130Z,17.85
2022-07-25T10:53:13.194Z,17.95
2022-07-25T10:55:40.801Z,16.70
2022-07-25T10:58:17.667Z,17.25
2022-07-25T11:00:45.915Z,16.88
2022-07-25T11:03:18.157Z,17.23
2022-07-25T11:05:47.093Z,16.95
2022-07-25T11:08:22.141Z,17.33
2022-07-25T11:10:52.772Z,17.73
2022-07-25T11:13:20.472Z,16.05
2022-07-25T11:15:48.464Z,16.92
2022-07-25T11:18:18.416Z,17.55
2022-07-25T11:20:46.169Z,16.80
2022-07-25T11:23:23.780Z,17.00
2022-07-25T11:25:51.741Z,16.30
2022-07-25T11:28:19.364Z,17.48
2022-07-25T11:30:47.504Z,18.40
2022-07-25T11:33:17.706Z,17.60
2022-07-25T11:35:45.529Z,17.90
2022-07-25T11:38:15.070Z,17.42
2022-07-25T11:40:45.366Z,18.13
2022-07-25T11:43:20.707Z,18.08
2022-07-25T11:45:57.587Z,17.30
2022-07-25T11:48:32.342Z,18.15
2022-07-25T11:51:00.037Z,17.88
2022-07-25T11:53:27.789Z,17.52
2022-07-25T11:55:57.053Z,17.50
2022-07-25T11:58:25.534Z,18.20
2022-07-25T12:00:53.138Z,18.65
2022-07-25T12:03:21.744Z,17.73
2022-07-25T12:05:50.428Z,18.33
2022-07-25T12:08:19.304Z,17.95
2022-07-25T12:10:49.217Z,18.02
2022-07-25T12:13:25.023Z,18.45
2022-07-25T12:15:52.825Z,17.55
2022-07-25T12:18:20.458Z,18.58
2022-07-25T12:20:48.104Z,17.30
2022-07-25T12:23:15.769Z,17.88
2022-07-25T12:25:45.373Z,18.23
2022-07-25T12:28:13.393Z,18.38
2022-07-25T12:30:44.449Z,19.08
2022-07-25T12:33:12.910Z,17.98
2022-07-25T12:35:41.328Z,18.40
2022-07-25T12:38:11.021Z,18.33
2022-07-25T12:40:38.925Z,17.38
2022-07-25T12:43:06.908Z,18.48
2022-07-25T12:45:34.738Z,18.00
2022-07-25T12:48:04.038Z,18.23
2022-07-25T12:50:31.715Z,17.52
2022-07-25T12:52:59.399Z,18.83
2022-07-25T12:55:27.049Z,18.58
2022-07-25T12:57:55.130Z,18.27
2022-07-25T13:00:24.169Z,17.88
2022-07-25T13:02:53.226Z,17.80
2022-07-25T13:05:22.853Z,18.83
2022-07-25T13:07:50.940Z,18.58
2022-07-25T13:10:19.508Z,18.50
2022-07-25T13:12:47.611Z,18.17
2022-07-25T13:15:15.497Z,19.15
2022-07-25T13:17:43.108Z,18.50
2022-07-25T13:20:11.976Z,19.17
2022-07-25T13:22:40.939Z,18.42
2022-07-25T13:25:09.099Z,18.40
2022-07-25T13:27:38.278Z,19.20
2022-07-25T13:30:08.228Z,17.95
2022-07-25T13:32:36.709Z,18.95
2022-07-25T13:35:05.342Z,18.63
2022-07-25T13:37:33.240Z,18.88
2022-07-25T13:40:02.159Z,19.02
2022-07-25T13:42:29.763Z,17.45
2022-07-25T13:44:57.513Z,18.45
2022-07-25T13:47:30.163Z,18.08
2022-07-25T13:49:58.160Z,17.98
2022-07-25T13:52:25.808Z,18.00
2022-07-25T13:54:53.423Z,17.77
2022-07-25T13:57:22.373Z,18.05
2022-07-25T13:59:49.975Z,17.38
2022-07-25T14:02:19.933Z,17.23
2022-07-25T14:04:47.576Z,18.25
2022-07-25T14:07:15.272Z,17.92
2022-07-25T14:09:42.889Z,17.23
2022-07-25T14:12:10.866Z,17.85
2022-07-25T14:14:40.679Z,17.65
2022-07-25T14:17:08.426Z,17.38
2022-07-25T14:19:36.045Z,17.23
2022-07-25T14:22:03.764Z,17.10
2022-07-25T14:24:31.536Z,18.17
2022-07-25T14:27:00.537Z,17.58
2022-07-25T14:29:30.562Z,16.48
2022-07-25T14:31:59.964Z,17.40
2022-07-25T14:34:27.780Z,16.73
2022-07-25T14:36:55.421Z,16.92
2022-07-25T14:39:23.617Z,17.80
2022-07-25T14:41:52.806Z,17.00
2022-07-25T14:44:21.897Z,17.52
2022-07-25T14:46:50.312Z,16.88
2022-07-25T14:49:19.386Z,16.63
2022-07-25T14:51:47.432Z,16.45
2022-07-25T14:54:15.175Z,17.13
2022-07-25T14:56:45.335Z,16.92
2022-07-25T14:59:13.008Z,16.80
2022-07-25T15:01:41.298Z,16.80
2022-07-25T15:04:09.009Z,16.27
2022-07-25T15:06:38.303Z,16.20
2022-07-25T15:09:06.577Z,16.88
2022-07-25T15:11:34.526Z,17.17
2022-07-25T15:14:02.244Z,16.48
2022-07-25T15:16:30.154Z,17.63
2022-07-25T15:19:15.904Z,16.55
2022-07-25T15:21:46.350Z,17.20
2022-07-25T15:24:14.286Z,16.67
2022-07-25T15:26:42.212Z,17.60
2022-07-25T15:29:11.258Z,17.02
2022-07-25T15:31:39.269Z,16.73
2022-07-25T15:34:06.933Z,16.40
2022-07-25T15:36:34.572Z,16.98
2022-07-25T15:39:04.017Z,16.92
2022-07-25T15:41:32.141Z,16.48
2022-07-25T15:44:00.374Z,15.30
2022-07-25T15:46:29.013Z,16.77
2022-07-25T15:48:57.805Z,16.33
2022-07-25T15:51:25.547Z,16.95
2022-07-25T15:53:53.167Z,16.00
2022-07-25T15:56:22.317Z,16.80
2022-07-25T15:58:50.971Z,17.05
2022-07-25T16:01:18.789Z,15.48
2022-07-25T16:03:46.885Z,15.65
2022-07-25T16:06:18.777Z,16.38
2022-07-25T16:08:46.714Z,16.27
2022-07-25T16:11:14.365Z,16.42
2022-07-25T16:13:43.394Z,16.95
2022-07-25T16:16:11.221Z,15.98
2022-07-25T16:18:38.908Z,17.27
2022-07-25T16:21:07.028Z,15.75
2022-07-25T16:23:38.972Z,16.90
2022-07-25T16:26:08.583Z,17.10
2022-07-25T16:28:37.212Z,16.83
2022-07-25T16:31:06.773Z,16.85
2022-07-25T16:33:34.644Z,17.48
2022-07-25T16:36:02.270Z,16.50
2022-07-25T16:38:30.057Z,16.70
2022-07-25T16:40:57.815Z,16.38
2022-07-25T16:43:25.477Z,17.10
2022-07-25T16:45:53.134Z,16.63
2022-07-25T16:48:22.085Z,18.20
2022-07-25T16:50:49.721Z,17.73
2022-07-25T16:53:17.589Z,17.88
2022-07-25T16:55:45.333Z,17.67
2022-07-25T16:58:12.964Z,17.70
2022-07-25T17:00:41.978Z,18.40
2022-07-25T17:03:09.856Z,17.95
2022-07-25T17:05:39.052Z,18.15
2022-07-25T17:08:06.699Z,18.00
2022-07-25T17:10:34.556Z,18.00
2022-07-25T17:13:02.283Z,18.23
2022-07-25T17:15:30.071Z,17.55
2022-07-25T17:17:58.466Z,17.88
2022-07-25T17:20:26.496Z,18.60
2022-07-25T17:22:55.669Z,17.83
2022-07-25T17:25:23.610Z,18.33
2022-07-25T17:27:51.260Z,17.88
2022-07-25T17:30:18.902Z,17.77
2022-07-25T17:32:46.836Z,16.45
2022-07-25T17:35:14.739Z,18.33
2022-07-25T17:37:42.878Z,18.27
2022-07-25T17:40:12.562Z,17.23
2022-07-25T17:42:44.898Z,18.13
2022-07-25T17:45:13.482Z,17.33
2022-07-25T17:47:41.587Z,17.77
2022-07-25T17:50:10.343Z,18.08
2022-07-25T17:52:38.443Z,18.35
2022-07-25T17:55:06.965Z,17.33
2022-07-25T17:57:36.941Z,17.52
2022-07-25T18:00:05.652Z,18.83
2022-07-25T18:02:33.397Z,18.55
2022-07-25T18:05:01.185Z,17.63
2022-07-25T18:07:28.995Z,17.58
2022-07-25T18:09:56.814Z,18.23
2022-07-25T18:12:29.475Z,19.10
2022-07-25T18:14:58.829Z,19.88
2022-07-25T18:17:26.682Z,18.77
2022-07-25T18:19:54.447Z,17.95
2022-07-25T18:22:22.164Z,20.00
2022-07-25T18:24:49.899Z,18.80
2022-07-25T18:27:18.043Z,18.63
2022-07-25T18:29:46.066Z,20.02
2022-07-25T18:32:15.101Z,18.42
2022-07-25T18:34:42.830Z,19.30
2022-07-25T18:37:11.161Z,18.92
2022-07-25T18:39:38.853Z,19.30
2022-07-25T18:42:06.658Z,18.92
2022-07-25T18:44:34.426Z,18.25
2022-07-25T18:47:02.084Z,17.77
2022-07-25T18:49:31.195Z,19.52
2022-07-25T18:51:58.904Z,19.00
2022-07-25T18:54:26.898Z,19.02
2022-07-25T18:56:54.725Z,18.75
2022-07-25T18:59:24.075Z,18.58
2022-07-25T19:01:53.232Z,19.67
2022-07-25T19:04:21.067Z,18.83
2022-07-25T19:06:50.185Z,19.02
2022-07-25T19:09:17.984Z,18.85
2022-07-25T19:11:45.929Z,19.05
2022-07-25T19:14:13.905Z,18.70
2022-07-25T19:16:41.764Z,19.10
2022-07-25T19:19:09.979Z,18.90
2022-07-25T19:21:37.839Z,20.38
2022-07-25T19:24:07.950Z,18.13
2022-07-25T19:26:35.866Z,18.20
2022-07-25T19:29:03.473Z,19.50
2022-07-25T19:31:31.181Z,17.58
2022-07-25T19:33:58.888Z,18.25
2022-07-25T19:36:26.524Z,18.67
2022-07-25T19:38:54.097Z,19.02
2022-07-25T19:41:23.168Z,18.13
2022-07-25T19:43:52.168Z,19.40
2022-07-25T19:46:19.921Z,19.25
2022-07-25T19:48:47.654Z,20.27
2022-07-25T19:51:15.380Z,19.05
2022-07-25T19:53:42.991Z,20.42
2022-07-25T19:56:10.644Z,19.90
2022-07-25T19:58:41.187Z,20.55
2022-07-25T20:01:11.579Z,19.83
2022-07-25T20:03:39.295Z,18.42
2022-07-25T20:06:08.451Z,17.13
2022-07-25T20:08:36.535Z,17.90
2022-07-25T20:11:04.322Z,19.27
2022-07-25T20:13:34.496Z,17.88
2022-07-25T20:16:04.044Z,17.42
2022-07-25T20:18:34.682Z,17.00
2022-07-25T20:21:02.830Z,16.30
2022-07-25T20:23:37.034Z,16.27
2022-07-25T20:26:06.063Z,16.85
2022-07-25T20:28:33.730Z,17.58
2022-07-25T20:31:02.788Z,17.00
2022-07-25T20:33:30.737Z,15.95
2022-07-25T20:35:59.261Z,16.42
2022-07-25T20:38:30.273Z,16.23
2022-07-25T20:40:58.360Z,15.80
2022-07-25T20:43:26.329Z,17.02
2022-07-25T20:45:54.883Z,15.55
2022-07-25T20:48:24.067Z,16.38
2022-07-25T20:50:52.004Z,16.95
2022-07-25T20:53:20.009Z,16.90
2022-07-25T20:55:47.640Z,16.27
2022-07-25T20:58:15.439Z,17.38
2022-07-25T21:00:43.245Z,16.60
2022-07-25T21:03:11.002Z,16.20
2022-07-25T21:05:41.971Z,17.45
2022-07-25T21:08:10.983Z,19.48
2022-07-25T21:10:39.439Z,17.50
2022-07-25T21:13:07.099Z,16.85
2022-07-25T21:15:35.485Z,18.10
2022-07-25T21:18:03.118Z,16.58
2022-07-25T21:20:31.023Z,17.25
2022-07-25T21:23:00.078Z,17.10
2022-07-25T21:25:27.837Z,17.20
2022-07-25T21:27:55.445Z,18.88
2022-07-25T21:30:23.128Z,16.15
2022-07-25T21:32:50.817Z,16.48
2022-07-25T21:35:19.170Z,16.30
2022-07-25T21:37:47.171Z,15.32
2022-07-25T21:40:16.452Z,16.75
2022-07-25T21:42:44.240Z,16.00
2022-07-25T21:45:12.622Z,19.02
2022-07-25T21:47:40.158Z,16.98
2022-07-25T21:50:25.790Z,17.08
2022-07-25T21:52:53.497Z,17.90
2022-07-25T21:55:22.960Z,18.83
2022-07-25T21:57:51.268Z,18.85
2022-07-25T22:00:20.035Z,17.05
2022-07-25T22:02:48.321Z,16.42
2022-07-25T22:05:17.291Z,17.27
2022-07-25T22:07:47.141Z,18.40
2022-07-25T22:10:15.823Z,16.27
2022-07-25T22:12:44.886Z,16.90
2022-07-25T22:15:13.635Z,15.93
2022-07-25T22:17:49.020Z,15.80
2022-07-25T22:20:17.855Z,15.10
2022-07-25T22:22:45.439Z,14.98
2022-07-25T22:25:13.154Z,13.98
2022-07-25T22:27:40.739Z,13.23
2022-07-25T22:30:16.464Z,14.20
2022-07-25T22:32:46.803Z,13.80
2022-07-25T22:35:14.482Z,14.05
2022-07-25T22:37:42.104Z,14.25
2022-07-25T22:40:10.362Z,13.98
2022-07-25T22:42:37.990Z,14.23
2022-07-25T22:45:06.697Z,14.55
2022-07-25T22:47:35.700Z,14.15
2022-07-25T22:50:03.327Z,14.13
2022-07-25T22:52:31.223Z,14.00
2022-07-25T22:54:58.831Z,13.98
2022-07-25T22:57:27.169Z,15.13
2022-07-25T22:59:54.773Z,15.43
2022-07-25T23:02:22.408Z,14.75
2022-07-25T23:04:51.347Z,13.93
2022-07-25T23:07:18.897Z,13.90
2022-07-25T23:09:46.479Z,14.70
2022-07-25T23:12:14.037Z,13.77
2022-07-25T23:14:41.635Z,13.98
2022-07-25T23:17:18.072Z,13.60
2022-07-25T23:19:46.462Z,14.38
2022-07-25T23:22:15.582Z,14.27
2022-07-25T23:24:43.203Z,14.25
2022-07-25T23:27:11.341Z,14.68
2022-07-25T23:29:39.186Z,13.55
2022-07-25T23:32:07.415Z,15.02
2022-07-25T23:34:35.355Z,14.05
2022-07-25T23:37:03.523Z,14.02
2022-07-25T23:39:33.438Z,14.43
2022-07-25T23:42:01.640Z,14.45
2022-07-25T23:44:29.640Z,13.48
2022-07-25T23:46:59.835Z,13.45
2022-07-25T23:49:29.214Z,13.63
2022-07-25T23:51:57.506Z,13.57
2022-07-25T23:54:25.694Z,13.30
2022-07-25T23:56:54.723Z,12.85
2022-07-25T23:59:22.485Z,12.80
